Time,TemperatureF,DewpointF,PressureIn,WindDirection,WindDirectionDegrees,WindSpeedMPH,WindSpeedGustMPH,Humidity,HourlyPrecipIn,Conditions,Clouds,dailyrainin,SolarRadiationWatts/m^2,SoftwareType,DateUTC
2017-11-17 00:00:00,39.2,30.4,-100.00,SE,135,2.2,5.1,70,0.00,,,-99.99,1.0,Onset +HOBO +Station,2017-11-17 07:00:00,
2017-11-17 00:15:00,39.0,30.6,-100.00,SSW,202,1.8,4.0,71,0.00,,,-99.99,1.0,Onset +HOBO +Station,2017-11-17 07:15:00,
2017-11-17 00:30:00,39.0,30.4,-100.00,SSW,212,1.1,4.5,70,0.00,,,-99.99,1.0,Onset +HOBO +Station,2017-11-17 07:30:00,
2017-11-17 00:45:00,38.5,30.4,-100.00,SW,215,0.7,2.2,72,0.00,,,-99.99,1.0,Onset +HOBO +Station,2017-11-17 07:45:00,
2017-11-17 01:00:00,38.1,30.5,-100.00,SW,215,2.9,5.1,74,0.00,,,-99.99,1.0,Onset +HOBO +Station,2017-11-17 08:00:00,
2017-11-17 01:15:00,38.1,30.5,-100.00,SW,218,1.1,5.1,73,0.00,,,-99.99,1.0,Onset +HOBO +Station,2017-11-17 08:15:00,
2017-11-17 01:30:00,37.9,30.5,-100.00,SW,218,1.1,3.4,74,0.00,,,-99.99,1.0,Onset +HOBO +Station,2017-11-17 08:30:00,
2017-11-17 01:45:00,38.3,31.0,-100.00,SW,218,0.7,2.9,74,0.00,,,-99.99,1.0,Onset +HOBO +Station,2017-11-17 08:45:00,
2017-11-17 02:00:00,37.5,30.8,-100.00,SW,219,2.9,6.3,76,0.00,,,-99.99,1.0,Onset +HOBO +Station,2017-11-17 09:00:00,
2017-11-17 02:15:00,36.7,31.2,-100.00,SW,219,4.0,6.3,80,0.00,,,-99.99,1.0,Onset +HOBO +Station,2017-11-17 09:15:00,
2017-11-17 02:30:00,36.4,30.9,-100.00,SW,220,2.9,6.7,80,0.00,,,-99.99,1.0,Onset +HOBO +Station,2017-11-17 09:30:00,
2017-11-17 02:45:00,36.3,30.9,-100.00,SSW,194,5.6,8.9,80,0.00,,,-99.99,1.0,Onset +HOBO +Station,2017-11-17 09:45:00,
2017-11-17 03:00:00,37.0,31.4,-100.00,SSW,197,6.3,12.3,79,0.00,,,-99.99,1.0,Onset +HOBO +Station,2017-11-17 10:00:00,
2017-11-17 03:15:00,36.8,31.4,-100.00,SW,226,4.5,11.9,80,0.00,,,-99.99,1.0,Onset +HOBO +Station,2017-11-17 10:15:00,
2017-11-17 03:30:00,37.6,31.7,-100.00,WSW,251,3.4,7.4,78,0.00,,,-99.99,1.0,Onset +HOBO +Station,2017-11-17 10:30:00,
2017-11-17 03:45:00,37.9,31.6,-100.00,West,263,4.0,8.9,77,0.00,,,-99.99,1.0,Onset +HOBO +Station,2017-11-17 10:45:00,
2017-11-17 04:00:00,38.2,31.7,-100.00,WSW,244,4.0,8.5,77,0.00,,,-99.99,1.0,Onset +HOBO +Station,2017-11-17 11:00:00,
2017-11-17 04:15:00,37.6,31.8,-100.00,WSW,246,2.9,8.5,79,0.00,,,-99.99,1.0,Onset +HOBO +Station,2017-11-17 11:15:00,
2017-11-17 04:30:00,37.8,31.9,-100.00,West,263,3.4,7.4,78,0.00,,,-99.99,1.0,Onset +HOBO +Station,2017-11-17 11:30:00,
2017-11-17 04:45:00,38.2,32.5,-100.00,West,277,0.7,3.4,79,0.00,,,-99.99,1.0,Onset +HOBO +Station,2017-11-17 11:45:00,
2017-11-17 05:00:00,37.8,31.8,-100.00,West,277,1.1,2.2,78,0.00,,,-99.99,1.0,Onset +HOBO +Station,2017-11-17 12:00:00,
2017-11-17 05:15:00,38.0,32.0,-100.00,WSW,257,1.1,3.4,78,0.00,,,-99.99,1.0,Onset +HOBO +Station,2017-11-17 12:15:00,
2017-11-17 05:30:00,36.3,31.3,-100.00,WSW,256,0.7,2.2,81,0.00,,,-99.99,1.0,Onset +HOBO +Station,2017-11-17 12:30:00,
2017-11-17 05:45:00,36.0,31.3,-100.00,WNW,291,2.2,5.1,82,0.00,,,-99.99,1.0,Onset +HOBO +Station,2017-11-17 12:45:00,
2017-11-17 06:00:00,35.7,31.1,-100.00,NNE,25,4.5,6.7,83,0.00,,,-99.99,1.0,Onset +HOBO +Station,2017-11-17 13:00:00,
2017-11-17 06:15:00,35.2,30.2,-100.00,NNE,17,4.0,6.7,82,0.00,,,-99.99,1.0,Onset +HOBO +Station,2017-11-17 13:15:00,
2017-11-17 06:30:00,35.0,29.8,-100.00,NNE,13,2.2,4.5,80,0.00,,,-99.99,1.0,Onset +HOBO +Station,2017-11-17 13:30:00,
2017-11-17 06:45:00,35.0,29.7,-100.00,NNE,14,2.2,4.0,80,0.00,,,-99.99,1.0,Onset +HOBO +Station,2017-11-17 13:45:00,
2017-11-17 07:00:00,34.6,29.6,-100.00,NNE,18,2.2,5.1,81,0.00,,,-99.99,1.0,Onset +HOBO +Station,2017-11-17 14:00:00,
2017-11-17 07:15:00,34.2,29.6,-100.00,NE,34,4.0,6.7,83,0.00,,,-99.99,4.0,Onset +HOBO +Station,2017-11-17 14:15:00,
2017-11-17 07:30:00,34.3,29.9,-100.00,NE,38,2.9,5.6,83,0.00,,,-99.99,14.0,Onset +HOBO +Station,2017-11-17 14:30:00,
2017-11-17 07:45:00,34.6,29.6,-100.00,NE,44,4.5,7.4,82,0.00,,,-99.99,27.0,Onset +HOBO +Station,2017-11-17 14:45:00,
2017-11-17 08:00:00,35.6,29.9,-100.00,NE,45,0.0,3.4,79,0.00,,,-99.99,37.0,Onset +HOBO +Station,2017-11-17 15:00:00,
2017-11-17 08:15:00,34.9,30.1,-100.00,NNE,18,2.9,6.7,82,0.00,,,-99.99,46.0,Onset +HOBO +Station,2017-11-17 15:15:00,
2017-11-17 08:30:00,35.8,30.5,-100.00,North,4,0.7,2.9,80,0.00,,,-99.99,58.0,Onset +HOBO +Station,2017-11-17 15:30:00,
2017-11-17 08:45:00,35.7,30.4,-100.00,North,6,0.7,4.0,80,0.00,,,-99.99,81.0,Onset +HOBO +Station,2017-11-17 15:45:00,
2017-11-17 09:00:00,35.5,30.9,-100.00,NE,41,1.8,5.1,83,0.00,,,-99.99,87.0,Onset +HOBO +Station,2017-11-17 16:00:00,
2017-11-17 09:15:00,36.5,31.1,-100.00,ENE,72,1.8,5.1,80,0.00,,,-99.99,87.0,Onset +HOBO +Station,2017-11-17 16:15:00,
2017-11-17 09:30:00,36.6,31.3,-100.00,South,188,4.5,7.4,81,0.00,,,-99.99,106.0,Onset +HOBO +Station,2017-11-17 16:30:00,
2017-11-17 09:45:00,36.5,31.9,-100.00,SSW,192,4.0,6.3,83,0.00,,,-99.99,117.0,Onset +HOBO +Station,2017-11-17 16:45:00,
2017-11-17 10:00:00,36.5,32.2,-100.00,South,188,5.6,7.4,84,0.00,,,-99.99,86.0,Onset +HOBO +Station,2017-11-17 17:00:00,
2017-11-17 10:15:00,37.2,33.0,-100.00,South,178,5.6,8.5,84,0.00,,,-99.99,222.0,Onset +HOBO +Station,2017-11-17 17:15:00,
2017-11-17 10:30:00,37.9,33.0,-100.00,South,170,4.0,7.4,82,0.00,,,-99.99,199.0,Onset +HOBO +Station,2017-11-17 17:30:00,
2017-11-17 10:45:00,39.9,34.1,-100.00,SSW,194,4.0,7.8,79,0.00,,,-99.99,179.0,Onset +HOBO +Station,2017-11-17 17:45:00,
2017-11-17 11:00:00,40.4,34.5,-100.00,SSW,197,4.0,7.8,79,0.00,,,-99.99,197.0,Onset +HOBO +Station,2017-11-17 18:00:00,
2017-11-17 11:15:00,40.8,34.7,-100.00,SSW,205,3.4,7.8,78,0.00,,,-99.99,154.0,Onset +HOBO +Station,2017-11-17 18:15:00,
2017-11-17 11:30:00,41.2,35.0,-100.00,SSW,205,4.5,8.5,78,0.00,,,-99.99,192.0,Onset +HOBO +Station,2017-11-17 18:30:00,
2017-11-17 11:45:00,42.0,35.3,-100.00,SSW,211,5.1,9.6,77,0.00,,,-99.99,197.0,Onset +HOBO +Station,2017-11-17 18:45:00,
2017-11-17 12:00:00,42.6,35.4,-100.00,WSW,240,4.5,8.5,75,0.00,,,-99.99,183.0,Onset +HOBO +Station,2017-11-17 19:00:00,
2017-11-17 12:15:00,43.0,34.9,-100.00,SW,225,4.0,7.4,73,0.00,,,-99.99,139.0,Onset +HOBO +Station,2017-11-17 19:15:00,